Time;durP1;ratioP1;P1;durP2;ratioP2;P2;SDS_P1;SDS_P2;PMS_P1;PMS_P2;Temp;Humidity;BMP_temperature;BMP_pressure;BME280_temperature;BME280_humidity;BME280_pressure;Samples;Min_cycle;Max_cycle;Signal;HPM_P1;HPM_P2
2022/08/28 00:00:26;;;;;;;7.20;3.17;;;12.30;99.90;;;;;;5131636;27;20047;-66
2022/08/28 00:02:54;;;;;;;9.85;3.40;;;12.30;99.90;;;;;;5131587;27;20374;-66
2022/08/28 00:05:23;;;;;;;7.15;3.50;;;12.30;99.90;;;;;;5131240;27;20118;-68
2022/08/28 00:07:49;;;;;;;7.53;3.42;;;12.30;99.90;;;;;;5131076;27;20036;-65
2022/08/28 00:10:17;;;;;;;10.95;3.28;;;12.30;99.90;;;;;;5132378;27;20497;-65
2022/08/28 00:12:45;;;;;;;7.78;3.45;;;12.20;99.90;;;;;;5132362;27;20385;-65
2022/08/28 00:15:14;;;;;;;6.55;3.25;;;12.20;99.90;;;;;;5131012;27;20047;-67
2022/08/28 00:17:41;;;;;;;6.63;3.15;;;12.20;99.90;;;;;;5131267;27;20039;-66
2022/08/28 00:20:09;;;;;;;8.85;3.35;;;12.20;99.90;;;;;;5131255;27;20388;-69
2022/08/28 00:22:37;;;;;;;6.65;3.00;;;12.20;99.90;;;;;;5114064;27;20046;-67
2022/08/28 00:25:05;;;;;;;5.55;3.40;;;12.20;99.90;;;;;;5130731;27;20035;-65
2022/08/28 00:30:15;;;;;;;5.47;3.00;;;12.10;99.90;;;;;;5130826;27;20383;-66
2022/08/28 00:32:41;;;;;;;10.25;3.08;;;12.00;99.90;;;;;;5130891;27;20039;-67
2022/08/28 00:35:07;;;;;;;8.93;2.90;;;12.00;99.90;;;;;;5131227;27;20052;-64
2022/08/28 00:37:34;;;;;;;9.45;3.47;;;12.00;99.90;;;;;;5130672;27;20084;-66
2022/08/28 00:40:00;;;;;;;6.35;3.00;;;12.00;99.90;;;;;;5113810;27;20058;-66
2022/08/28 00:42:26;;;;;;;5.68;3.05;;;12.00;99.90;;;;;;5130527;27;20051;-68
2022/08/28 00:44:52;;;;;;;6.90;2.80;;;11.90;99.90;;;;;;5132028;27;20078;-68
2022/08/28 00:47:18;;;;;;;7.97;3.30;;;11.90;99.90;;;;;;5130040;27;20563;-67
2022/08/28 00:49:49;;;;;;;7.57;3.58;;;11.90;99.90;;;;;;5117474;27;20347;-66
2022/08/28 00:52:17;;;;;;;8.50;3.33;;;11.90;99.90;;;;;;5127996;27;20042;-68
2022/08/28 00:54:50;;;;;;;7.45;3.50;;;11.90;99.90;;;;;;5131756;27;20108;-67
2022/08/28 00:57:24;;;;;;;7.68;3.30;;;11.90;99.90;;;;;;5130346;27;20047;-66
2022/08/28 00:59:50;;;;;;;10.65;3.13;;;11.80;99.90;;;;;;5130236;27;20039;-65
2022/08/28 01:02:16;;;;;;;7.47;2.60;;;11.80;99.90;;;;;;5130203;27;20103;-68
2022/08/28 01:04:42;;;;;;;8.18;3.33;;;11.80;99.90;;;;;;5113064;28;20068;-66
2022/08/28 01:07:14;;;;;;;7.35;2.92;;;11.80;99.90;;;;;;5130910;27;20043;-67
2022/08/28 01:09:49;;;;;;;7.65;2.75;;;11.80;99.90;;;;;;5130481;27;20039;-65
2022/08/28 01:12:25;;;;;;;8.23;3.08;;;11.80;99.90;;;;;;5130208;27;20043;-65
2022/08/28 01:14:53;;;;;;;7.63;2.85;;;11.80;99.90;;;;;;5130236;28;20066;-65
2022/08/28 01:17:22;;;;;;;6.00;3.10;;;11.70;99.90;;;;;;5129929;28;20044;-65
2022/08/28 01:19:55;;;;;;;7.15;3.00;;;11.70;99.90;;;;;;5130157;28;20050;-67
2022/08/28 01:22:36;;;;;;;6.28;3.13;;;11.70;99.90;;;;;;5131378;27;20070;-64
2022/08/28 01:25:06;;;;;;;6.28;3.38;;;11.70;99.90;;;;;;5130318;28;20023;-67
2022/08/28 01:27:32;;;;;;;4.63;2.65;;;11.60;99.90;;;;;;5129913;28;20039;-67
2022/08/28 01:29:58;;;;;;;3.60;2.65;;;11.60;99.90;;;;;;5130152;28;20391;-67
2022/08/28 01:32:46;;;;;;;8.48;3.10;;;11.60;99.90;;;;;;5130449;27;20043;-64
2022/08/28 01:35:18;;;;;;;5.57;2.75;;;11.50;99.90;;;;;;5134261;27;20031;-66
2022/08/28 01:37:45;;;;;;;5.53;2.80;;;11.50;99.90;;;;;;5134353;27;20079;-66
2022/08/28 01:40:16;;;;;;;5.82;2.70;;;11.50;99.90;;;;;;5136045;27;20039;-66
2022/08/28 01:42:42;;;;;;;4.15;2.35;;;11.50;99.90;;;;;;5134008;27;20051;-67
2022/08/28 01:45:12;;;;;;;5.65;3.03;;;11.40;99.90;;;;;;5134006;27;20423;-66
2022/08/28 01:47:38;;;;;;;6.00;2.90;;;11.40;99.90;;;;;;5133988;27;20051;-68
2022/08/28 01:50:06;;;;;;;4.63;2.72;;;11.40;99.90;;;;;;5134062;27;20147;-67
2022/08/28 01:52:32;;;;;;;5.65;2.53;;;11.40;99.90;;;;;;5135140;27;20039;-68
2022/08/28 01:54:58;;;;;;;7.80;2.83;;;11.40;99.90;;;;;;5128738;27;20466;-67
2022/08/28 01:57:24;;;;;;;5.70;2.65;;;11.40;99.90;;;;;;5130636;27;20050;-67
2022/08/28 01:59:50;;;;;;;4.68;2.70;;;11.30;99.90;;;;;;5133818;27;20047;-68
2022/08/28 02:02:16;;;;;;;4.90;2.70;;;11.30;99.90;;;;;;5133651;27;20391;-67
2022/08/28 02:04:42;;;;;;;7.28;3.10;;;11.30;99.90;;;;;;5133879;27;20042;-66
2022/08/28 02:07:08;;;;;;;5.55;2.80;;;11.20;99.90;;;;;;5133581;27;20049;-68
2022/08/28 02:09:34;;;;;;;5.05;2.80;;;11.30;99.90;;;;;;5133333;27;20114;-65
2022/08/28 02:12:00;;;;;;;6.07;2.83;;;11.20;99.90;;;;;;5133570;27;20080;-67
2022/08/28 02:14:26;;;;;;;5.53;2.88;;;11.20;99.90;;;;;;5133625;27;20054;-66
2022/08/28 02:16:51;;;;;;;4.97;2.40;;;11.20;99.90;;;;;;5133375;27;20039;-67
2022/08/28 02:19:17;;;;;;;3.70;2.35;;;11.10;99.90;;;;;;5133376;27;20078;-65
2022/08/28 02:21:43;;;;;;;7.70;2.30;;;11.10;99.90;;;;;;5133623;27;20039;-68
2022/08/28 02:24:08;;;;;;;3.00;2.00;;;11.00;99.90;;;;;;5133406;27;20041;-66
2022/08/28 02:26:34;;;;;;;4.90;2.30;;;11.10;99.90;;;;;;5134423;27;20110;-65
2022/08/28 02:29:00;;;;;;;3.88;2.22;;;11.00;99.90;;;;;;5133144;27;20100;-67
2022/08/28 02:31:26;;;;;;;2.80;2.33;;;11.00;99.90;;;;;;5133392;27;20123;-67
2022/08/28 02:33:52;;;;;;;3.30;2.05;;;11.00;99.90;;;;;;5133001;27;20031;-70
2022/08/28 02:36:17;;;;;;;3.92;2.03;;;11.00;99.90;;;;;;5133590;27;20386;-66
2022/08/28 02:38:44;;;;;;;3.90;2.22;;;11.00;99.90;;;;;;5132889;27;20043;-67
2022/08/28 02:41:11;;;;;;;3.03;2.03;;;10.90;99.90;;;;;;5132867;27;20125;-64
2022/08/28 02:43:37;;;;;;;4.35;2.20;;;10.90;99.90;;;;;;5133006;27;20047;-66
2022/08/28 02:46:04;;;;;;;3.50;2.00;;;10.90;99.90;;;;;;5134228;27;20035;-66
2022/08/28 02:48:32;;;;;;;4.60;2.50;;;10.90;99.90;;;;;;5133994;27;20043;-66
2022/08/28 02:51:10;;;;;;;3.42;2.33;;;10.90;99.90;;;;;;5132593;27;20035;-66
2022/08/28 02:53:36;;;;;;;4.38;2.42;;;10.90;99.90;;;;;;5132908;27;20046;-69
2022/08/28 02:56:03;;;;;;;3.78;2.50;;;10.90;99.90;;;;;;5133123;27;20035;-66
2022/08/28 02:58:31;;;;;;;5.38;2.85;;;10.90;99.90;;;;;;5132887;27;20047;-65
2022/08/28 03:00:57;;;;;;;4.32;2.80;;;10.90;99.90;;;;;;5132436;27;20069;-64
2022/08/28 03:03:23;;;;;;;6.85;3.13;;;10.90;99.90;;;;;;5132442;27;20054;-68
2022/08/28 03:05:48;;;;;;;6.45;3.20;;;10.90;99.90;;;;;;5132438;27;20427;-66
2022/08/28 03:08:14;;;;;;;7.20;3.20;;;10.90;99.90;;;;;;5132384;27;20039;-65
2022/08/28 03:10:40;;;;;;;6.70;2.92;;;10.90;99.90;;;;;;5132539;27;20092;-66
2022/08/28 03:13:06;;;;;;;5.05;2.83;;;11.00;99.90;;;;;;5132341;27;20551;-67
2022/08/28 03:15:32;;;;;;;5.47;2.75;;;10.90;99.90;;;;;;5132423;27;20039;-67
2022/08/28 03:17:58;;;;;;;6.00;2.35;;;11.00;99.90;;;;;;5132215;27;20058;-65
2022/08/28 03:20:24;;;;;;;5.32;2.55;;;10.90;99.90;;;;;;5132071;27;20078;-66
2022/08/28 03:25:34;;;;;;;3.17;1.92;;;10.90;99.90;;;;;;5132066;27;20070;-69
2022/08/28 03:27:59;;;;;;;1.92;1.48;;;10.90;99.90;;;;;;5131988;27;20073;-68
2022/08/28 03:30:25;;;;;;;2.33;1.80;;;10.80;99.90;;;;;;5131959;27;20118;-65
2022/08/28 03:32:50;;;;;;;3.10;1.77;;;10.80;99.90;;;;;;5131953;27;20035;-65
2022/08/28 03:35:16;;;;;;;3.78;2.20;;;10.80;99.90;;;;;;5132069;27;20408;-66
2022/08/28 03:37:43;;;;;;;2.92;1.88;;;10.70;99.90;;;;;;5131918;27;20134;-67
2022/08/28 03:40:09;;;;;;;2.95;2.20;;;10.70;99.90;;;;;;5131534;27;20123;-66
2022/08/28 03:42:35;;;;;;;3.85;2.20;;;10.70;99.90;;;;;;5132970;27;20047;-67
2022/08/28 03:45:01;;;;;;;6.07;2.60;;;10.70;99.90;;;;;;5117083;27;20111;-65
2022/08/28 03:47:27;;;;;;;3.38;2.38;;;10.60;99.90;;;;;;5129063;27;20061;-65
2022/08/28 03:49:56;;;;;;;4.68;2.63;;;10.60;99.90;;;;;;5114333;27;20042;-69
2022/08/28 03:52:23;;;;;;;2.40;2.20;;;10.60;99.90;;;;;;5131692;27;20039;-64
2022/08/28 03:54:49;;;;;;;5.15;2.30;;;10.60;99.90;;;;;;5131759;27;20043;-65
2022/08/28 03:57:19;;;;;;;3.90;2.70;;;10.50;99.90;;;;;;5132158;27;20035;-66
2022/08/28 03:59:49;;;;;;;4.30;2.38;;;10.50;99.90;;;;;;5131458;27;20035;-68
2022/08/28 04:02:17;;;;;;;2.97;2.30;;;10.40;99.90;;;;;;5131490;27;20504;-67
2022/08/28 04:04:44;;;;;;;2.92;2.28;;;10.40;99.90;;;;;;5132856;27;20405;-66
2022/08/28 04:07:10;;;;;;;2.20;2.00;;;10.40;99.90;;;;;;5131004;27;20043;-66
2022/08/28 04:09:35;;;;;;;2.17;1.83;;;10.40;99.90;;;;;;5131225;27;20038;-67
2022/08/28 04:12:01;;;;;;;3.10;2.25;;;10.40;99.90;;;;;;5131080;27;20047;-66
2022/08/28 04:14:27;;;;;;;3.53;2.10;;;10.40;99.90;;;;;;5131125;27;20061;-66
2022/08/28 04:16:53;;;;;;;3.28;2.10;;;10.30;99.90;;;;;;5106716;28;20450;-68
2022/08/28 04:19:18;;;;;;;4.78;2.05;;;10.40;99.90;;;;;;5110604;28;20062;-67
2022/08/28 04:21:44;;;;;;;3.90;2.33;;;10.30;99.90;;;;;;5129442;27;20043;-66
2022/08/28 04:24:12;;;;;;;4.28;1.98;;;10.30;99.90;;;;;;5132101;27;20031;-68
2022/08/28 04:26:38;;;;;;;2.78;1.80;;;10.30;99.90;;;;;;5130699;27;20043;-67
2022/08/28 04:29:05;;;;;;;3.33;2.00;;;10.30;99.90;;;;;;5130545;27;20039;-65
2022/08/28 04:31:32;;;;;;;2.83;2.10;;;10.30;99.90;;;;;;5131120;27;20541;-64
2022/08/28 04:34:01;;;;;;;4.45;2.13;;;10.30;99.90;;;;;;5130822;27;20068;-65
2022/08/28 04:36:27;;;;;;;2.78;1.75;;;10.30;99.90;;;;;;5131064;27;20855;-66
2022/08/28 04:38:53;;;;;;;2.58;1.63;;;10.30;99.90;;;;;;5113112;27;20096;-67
2022/08/28 04:41:19;;;;;;;2.08;1.40;;;10.30;99.90;;;;;;5113247;27;20048;-68
2022/08/28 04:43:46;;;;;;;1.90;1.70;;;10.40;99.90;;;;;;5130451;27;20743;-66
2022/08/28 04:46:13;;;;;;;2.20;1.33;;;10.30;99.90;;;;;;5130633;27;20047;-66
2022/08/28 04:48:40;;;;;;;1.55;1.00;;;10.30;99.90;;;;;;5130410;27;20397;-69
2022/08/28 04:51:08;;;;;;;1.73;1.00;;;10.30;99.90;;;;;;5130613;27;20039;-68
2022/08/28 04:53:36;;;;;;;2.08;1.20;;;10.30;99.90;;;;;;5130475;27;20427;-64
2022/08/28 04:56:04;;;;;;;2.35;1.65;;;10.30;99.90;;;;;;5123147;27;20524;-65
2022/08/28 04:58:32;;;;;;;4.38;2.10;;;10.30;99.90;;;;;;5130053;27;20023;-67
2022/08/28 05:01:03;;;;;;;3.00;2.25;;;10.30;99.90;;;;;;5130151;27;20080;-66
2022/08/28 05:03:28;;;;;;;5.50;2.40;;;10.40;99.90;;;;;;5130080;27;20050;-66
2022/08/28 05:05:54;;;;;;;4.78;2.53;;;10.40;99.90;;;;;;5130635;27;20043;-65
2022/08/28 05:08:23;;;;;;;6.57;2.88;;;10.40;99.90;;;;;;5129313;27;20046;-69
2022/08/28 05:10:49;;;;;;;4.97;2.72;;;10.40;99.90;;;;;;5130004;27;20096;-67
2022/08/28 05:13:15;;;;;;;4.93;2.50;;;10.40;99.90;;;;;;5130396;28;20047;-65
2022/08/28 05:15:44;;;;;;;5.40;2.58;;;10.40;99.90;;;;;;5130595;28;20381;-67
2022/08/28 05:18:14;;;;;;;5.03;2.60;;;10.40;99.90;;;;;;5130227;28;20058;-66
2022/08/28 05:20:42;;;;;;;9.27;2.42;;;10.50;99.90;;;;;;5130193;27;20074;-67
2022/08/28 05:23:09;;;;;;;3.75;2.33;;;10.50;99.90;;;;;;5130297;28;20035;-66
2022/08/28 05:25:37;;;;;;;4.88;2.40;;;10.50;99.90;;;;;;5130094;27;20051;-65
2022/08/28 05:28:03;;;;;;;4.45;2.40;;;10.50;99.90;;;;;;5131238;27;20043;-64
2022/08/28 05:30:28;;;;;;;5.93;2.50;;;10.60;99.90;;;;;;5129979;28;20043;-67
2022/08/28 05:32:54;;;;;;;6.50;2.33;;;10.60;99.90;;;;;;5130224;28;20039;-68
2022/08/28 05:35:20;;;;;;;6.07;2.92;;;10.60;99.90;;;;;;5129883;28;20496;-66
2022/08/28 05:37:45;;;;;;;4.55;2.28;;;10.70;99.90;;;;;;5131296;28;20038;-67
2022/08/28 05:40:11;;;;;;;5.47;2.60;;;10.70;99.90;;;;;;5130072;28;20050;-64
2022/08/28 05:42:37;;;;;;;4.75;2.17;;;10.80;99.90;;;;;;5129699;28;20059;-67
2022/08/28 05:45:05;;;;;;;3.78;2.50;;;10.90;99.90;;;;;;5112771;28;20039;-67
2022/08/28 05:47:31;;;;;;;9.43;3.20;;;11.00;99.90;;;;;;5131115;27;20039;-64
2022/08/28 05:49:57;;;;;;;5.82;2.30;;;11.10;99.90;;;;;;5130159;28;20078;-63
2022/08/28 05:52:24;;;;;;;5.63;2.42;;;11.20;99.90;;;;;;5130046;28;20071;-64
2022/08/28 05:54:50;;;;;;;5.68;2.78;;;11.30;99.90;;;;;;5130006;28;20043;-66
2022/08/28 05:57:16;;;;;;;7.72;2.40;;;11.40;99.90;;;;;;5129853;27;20039;-67
2022/08/28 05:59:42;;;;;;;6.43;2.78;;;11.50;99.90;;;;;;5129709;28;20091;-68
2022/08/28 06:02:08;;;;;;;6.30;2.70;;;11.60;99.90;;;;;;5131154;27;20047;-67
2022/08/28 06:04:36;;;;;;;6.95;2.58;;;11.80;99.90;;;;;;5112412;28;20047;-64
2022/08/28 06:07:03;;;;;;;7.18;2.60;;;11.90;99.90;;;;;;5129854;28;20078;-67
2022/08/28 06:09:30;;;;;;;9.23;2.80;;;12.00;99.90;;;;;;5130137;28;20477;-65
2022/08/28 06:11:58;;;;;;;8.15;2.75;;;12.10;99.90;;;;;;5130188;28;20433;-67
2022/08/28 06:14:24;;;;;;;8.85;2.58;;;12.20;99.90;;;;;;5129825;28;20072;-66
2022/08/28 06:16:53;;;;;;;6.30;2.85;;;12.40;99.90;;;;;;5112474;28;20056;-65
2022/08/28 06:19:21;;;;;;;6.93;2.58;;;12.50;99.90;;;;;;5131655;27;20051;-66
2022/08/28 06:21:47;;;;;;;5.93;2.67;;;12.70;99.90;;;;;;5133350;27;20037;-67
2022/08/28 06:24:13;;;;;;;6.70;2.70;;;12.80;99.90;;;;;;5133604;27;20427;-67
2022/08/28 06:26:40;;;;;;;7.45;2.78;;;13.00;99.90;;;;;;5133162;27;20042;-65
2022/08/28 06:29:11;;;;;;;7.82;2.83;;;13.10;99.90;;;;;;5134548;27;20114;-64
2022/08/28 06:31:37;;;;;;;5.57;2.70;;;13.30;99.90;;;;;;5133138;27;20092;-67
2022/08/28 06:34:03;;;;;;;6.45;2.80;;;13.40;99.90;;;;;;5133356;27;20043;-66
2022/08/28 06:36:32;;;;;;;5.57;2.60;;;13.70;99.90;;;;;;5134686;27;20118;-68
2022/08/28 06:38:59;;;;;;;8.82;2.53;;;13.80;99.90;;;;;;5133600;27;20042;-65
2022/08/28 06:41:26;;;;;;;5.70;2.63;;;14.00;99.90;;;;;;5132992;27;20051;-65
2022/08/28 06:43:52;;;;;;;8.15;2.70;;;14.30;99.90;;;;;;5133029;27;20046;-67
2022/08/28 06:46:18;;;;;;;9.43;2.22;;;14.50;99.90;;;;;;5132966;27;20043;-69
2022/08/28 06:48:43;;;;;;;5.82;1.98;;;14.60;99.90;;;;;;5132716;27;20397;-67
2022/08/28 06:51:11;;;;;;;7.95;2.10;;;14.80;99.90;;;;;;5134622;27;20023;-67
2022/08/28 06:53:38;;;;;;;7.13;2.00;;;15.00;99.90;;;;;;5132848;27;20039;-65
2022/08/28 06:56:16;;;;;;;5.00;2.05;;;15.20;99.90;;;;;;5133110;27;20023;-66
2022/08/28 06:58:43;;;;;;;8.90;1.83;;;15.40;99.90;;;;;;5115541;27;20039;-66
2022/08/28 07:01:12;;;;;;;8.07;2.00;;;15.60;99.90;;;;;;5132623;27;20092;-65
2022/08/28 07:03:39;;;;;;;6.95;1.80;;;15.70;99.90;;;;;;5134206;27;20477;-65
2022/08/28 07:06:06;;;;;;;5.32;1.70;;;15.90;99.90;;;;;;5132633;27;20090;-65
2022/08/28 07:08:34;;;;;;;12.23;2.35;;;16.10;99.90;;;;;;5132691;27;20039;-68
2022/08/28 07:11:08;;;;;;;8.52;1.98;;;16.20;99.90;;;;;;5115416;27;20031;-68
2022/08/28 07:13:35;;;;;;;8.50;2.00;;;16.40;99.90;;;;;;5132625;27;20027;-65
2022/08/28 07:16:01;;;;;;;5.22;1.67;;;16.50;99.90;;;;;;5132357;27;20049;-68
2022/08/28 07:18:27;;;;;;;5.97;1.40;;;16.60;99.90;;;;;;5132355;27;20118;-66
2022/08/28 07:20:59;;;;;;;8.32;1.92;;;16.80;99.90;;;;;;5132283;27;20084;-67
2022/08/28 07:23:26;;;;;;;9.75;2.00;;;16.80;99.90;;;;;;5115164;27;20046;-67
2022/08/28 07:25:52;;;;;;;8.23;1.77;;;16.90;99.90;;;;;;5132060;27;20031;-67
2022/08/28 07:28:18;;;;;;;8.30;1.85;;;17.10;99.90;;;;;;5132197;27;20079;-65
2022/08/28 07:30:44;;;;;;;8.18;2.20;;;17.20;99.90;;;;;;5131435;27;20122;-67
2022/08/28 07:33:10;;;;;;;9.02;1.90;;;17.30;99.90;;;;;;5133245;27;20045;-66
2022/08/28 07:35:36;;;;;;;7.13;1.90;;;17.40;99.90;;;;;;5131889;27;20046;-66
2022/08/28 07:38:01;;;;;;;7.03;2.00;;;17.50;99.90;;;;;;5132000;27;20385;-65
2022/08/28 07:40:27;;;;;;;9.93;1.70;;;17.70;99.90;;;;;;5131902;27;20051;-65
2022/08/28 07:45:37;;;;;;;5.43;1.40;;;18.00;99.90;;;;;;5131674;27;20130;-69
2022/08/28 07:48:07;;;;;;;10.70;2.08;;;18.10;99.90;;;;;;5131676;27;20152;-65
2022/08/28 07:50:33;;;;;;;9.07;2.15;;;18.10;99.90;;;;;;5132105;27;20031;-66
2022/08/28 07:52:59;;;;;;;6.93;1.60;;;18.20;99.90;;;;;;5132824;27;20046;-67
2022/08/28 07:55:26;;;;;;;5.38;1.80;;;18.30;99.90;;;;;;5131581;27;20039;-68
2022/08/28 07:57:52;;;;;;;7.40;1.50;;;18.40;99.90;;;;;;5131466;27;20047;-71
2022/08/28 08:00:18;;;;;;;9.25;1.77;;;18.50;99.90;;;;;;5131615;27;20477;-66
2022/08/28 08:02:44;;;;;;;8.88;1.75;;;18.50;99.90;;;;;;5131935;27;20035;-66
2022/08/28 08:05:10;;;;;;;6.22;1.35;;;18.70;99.90;;;;;;5131306;27;20054;-69
2022/08/28 08:07:39;;;;;;;5.20;1.50;;;18.80;99.90;;;;;;5131418;27;20039;-66
2022/08/28 08:10:13;;;;;;;7.22;1.73;;;18.90;99.90;;;;;;5132639;27;20070;-66
2022/08/28 08:12:41;;;;;;;6.32;1.33;;;19.10;99.90;;;;;;5131374;27;20050;-67
2022/08/28 08:15:08;;;;;;;5.97;1.50;;;19.40;99.90;;;;;;5131267;27;20047;-66
2022/08/28 08:17:34;;;;;;;6.00;1.50;;;19.50;99.90;;;;;;5131457;27;20134;-65
2022/08/28 08:20:00;;;;;;;5.75;1.52;;;19.60;99.90;;;;;;5131128;27;20114;-65
2022/08/28 08:22:26;;;;;;;6.88;1.70;;;19.80;99.90;;;;;;5131102;27;20119;-68
2022/08/28 08:24:53;;;;;;;4.90;1.40;;;19.90;99.90;;;;;;5131261;27;20393;-67
2022/08/28 08:27:19;;;;;;;7.32;1.40;;;20.10;99.90;;;;;;5113301;27;20058;-65
2022/08/28 08:29:45;;;;;;;7.43;1.80;;;20.10;99.90;;;;;;5131065;27;20423;-65
2022/08/28 08:32:11;;;;;;;6.68;1.73;;;19.90;99.90;;;;;;5113109;27;20039;-66
2022/08/28 08:34:40;;;;;;;8.60;1.90;;;19.60;99.90;;;;;;5130973;27;20100;-66
2022/08/28 08:37:06;;;;;;;6.28;1.50;;;19.30;99.90;;;;;;5130870;27;20059;-67
2022/08/28 08:39:33;;;;;;;7.53;1.75;;;19.00;99.90;;;;;;5130855;27;20109;-67
2022/08/28 08:42:03;;;;;;;6.75;1.50;;;18.90;99.90;;;;;;5130550;27;20073;-67
2022/08/28 08:44:43;;;;;;;6.68;1.60;;;18.70;99.90;;;;;;5130805;27;20417;-66
2022/08/28 08:47:15;;;;;;;6.18;1.65;;;18.40;99.90;;;;;;5132014;27;20078;-67
2022/08/28 08:50:06;;;;;;;8.77;1.90;;;18.20;99.90;;;;;;5130805;27;20380;-65
2022/08/28 08:52:44;;;;;;;4.30;1.40;;;18.40;99.90;;;;;;5130946;27;20035;-68
2022/08/28 08:55:26;;;;;;;5.25;1.23;;;18.60;99.90;;;;;;5130893;27;20474;-67
2022/08/28 08:57:55;;;;;;;;;;;19.10;99.90;;;;;;5130928;27;20111;-67
2022/08/28 09:00:21;;;;;;;5.22;1.67;;;19.60;99.90;;;;;;5130416;27;19983;-68
2022/08/28 09:03:18;;;;;;;4.20;1.45;;;19.90;99.90;;;;;;5130772;27;20050;-66
2022/08/28 09:06:06;;;;;;;5.97;1.92;;;20.20;99.90;;;;;;5120331;27;20104;-66
2022/08/28 09:08:41;;;;;;;4.22;1.38;;;20.30;99.80;;;;;;5130236;27;20042;-67
2022/08/28 09:11:29;;;;;;;3.90;1.40;;;20.60;99.90;;;;;;5130564;27;20035;-67
2022/08/28 09:14:19;;;;;;;6.10;1.50;;;20.90;99.10;;;;;;5130565;27;20496;-66
2022/08/28 09:16:46;;;;;;;4.28;1.27;;;21.30;99.60;;;;;;5130472;27;20035;-64
2022/08/28 09:19:20;;;;;;;4.78;1.33;;;21.70;98.70;;;;;;5130469;27;20238;-69
2022/08/28 09:21:48;;;;;;;5.60;1.63;;;21.80;97.90;;;;;;5125816;28;20508;-66
2022/08/28 09:24:35;;;;;;;6.18;1.40;;;21.90;96.50;;;;;;5126954;27;20039;-67
2022/08/28 09:27:31;;;;;;;3.33;1.30;;;21.50;96.20;;;;;;5130151;28;20047;-65
2022/08/28 09:30:09;;;;;;;4.78;1.50;;;21.10;96.70;;;;;;5111318;28;20051;-67
2022/08/28 09:32:40;;;;;;;7.55;1.63;;;21.10;97.50;;;;;;5130118;28;20057;-64
2022/08/28 09:35:25;;;;;;;4.70;1.33;;;21.20;97.40;;;;;;5130008;28;21374;-66
2022/08/28 09:37:51;;;;;;;3.78;1.40;;;21.40;96.50;;;;;;5130151;28;20043;-68
2022/08/28 09:40:22;;;;;;;4.97;1.42;;;21.60;97.40;;;;;;5130122;28;20181;-67
2022/08/28 09:43:32;;;;;;;5.88;1.75;;;21.70;96.60;;;;;;5129854;28;20126;-66
2022/08/28 09:46:26;;;;;;;7.80;2.00;;;21.50;97.00;;;;;;5129871;28;20058;-68
2022/08/28 09:49:07;;;;;;;8.10;1.35;;;21.70;97.00;;;;;;5129787;28;20041;-66
2022/08/28 09:51:37;;;;;;;5.47;1.50;;;22.10;96.30;;;;;;5130112;28;20039;-66
2022/08/28 09:54:28;;;;;;;7.20;1.63;;;22.10;96.50;;;;;;5130210;27;20039;-67
2022/08/28 09:56:55;;;;;;;4.97;1.33;;;21.80;95.90;;;;;;5134016;27;20088;-68
2022/08/28 09:59:24;;;;;;;8.60;1.83;;;21.30;96.60;;;;;;5135293;27;20174;-65
2022/08/28 10:02:14;;;;;;;7.35;1.80;;;21.00;96.10;;;;;;5133830;27;20501;-67
2022/08/28 10:05:01;;;;;;;5.03;1.30;;;21.10;96.00;;;;;;5133747;27;20096;-67
2022/08/28 10:07:42;;;;;;;5.07;1.50;;;21.50;96.40;;;;;;5134986;27;20505;-65
2022/08/28 10:10:27;;;;;;;5.47;1.63;;;21.80;95.90;;;;;;5133816;27;20043;-67
2022/08/28 10:13:13;;;;;;;4.60;1.50;;;22.10;95.00;;;;;;5133612;27;20031;-68
2022/08/28 10:16:19;;;;;;;6.22;1.67;;;22.70;96.20;;;;;;5133545;27;20110;-68
2022/08/28 10:19:17;;;;;;;5.13;1.33;;;23.00;94.60;;;;;;5133922;27;20477;-68
2022/08/28 10:21:56;;;;;;;4.38;1.50;;;22.60;94.50;;;;;;5034773;28;20159;-65
2022/08/28 10:24:40;;;;;;;6.70;1.70;;;22.00;94.60;;;;;;5027267;28;20113;-66
2022/08/28 10:27:15;;;;;;;7.53;1.50;;;21.30;94.70;;;;;;5040860;28;20610;-68
2022/08/28 10:30:04;;;;;;;5.03;1.73;;;20.80;95.20;;;;;;5032830;28;20558;-69
2022/08/28 10:33:00;;;;;;;6.32;1.60;;;20.40;95.60;;;;;;4994811;28;20045;-66
2022/08/28 10:35:37;;;;;;;3.20;1.40;;;20.20;96.50;;;;;;5014598;28;20033;-69
2022/08/28 10:38:10;;;;;;;5.32;1.50;;;20.00;96.50;;;;;;5027790;28;20061;-66
2022/08/28 10:40:58;;;;;;;6.40;1.60;;;20.00;96.50;;;;;;5031266;28;20539;-66
2022/08/28 10:43:23;;;;;;;3.63;1.42;;;20.30;96.70;;;;;;5014385;28;20053;-65
2022/08/28 10:45:53;;;;;;;7.90;2.13;;;20.80;96.40;;;;;;5014483;28;20045;-70
2022/08/28 10:48:27;;;;;;;3.95;1.55;;;21.30;96.10;;;;;;5014166;28;20045;-64
2022/08/28 10:50:59;;;;;;;6.38;1.63;;;21.80;95.60;;;;;;5016974;28;20236;-68
2022/08/28 10:53:31;;;;;;;6.40;1.80;;;22.10;95.00;;;;;;5034364;28;20767;-66
2022/08/28 10:55:58;;;;;;;;;;;22.00;94.60;;;;;;5034384;28;20041;-66
2022/08/28 10:58:26;;;;;;;7.03;2.03;;;21.70;94.50;;;;;;5093924;27;20006;-67
2022/08/28 11:01:13;;;;;;;3.90;1.40;;;21.70;95.10;;;;;;5132708;27;20031;-68
2022/08/28 11:03:47;;;;;;;5.47;1.63;;;22.10;95.30;;;;;;5132657;27;20047;-66
2022/08/28 11:06:18;;;;;;;6.40;1.75;;;22.40;95.40;;;;;;5131298;27;20050;-68
2022/08/28 11:08:51;;;;;;;5.78;1.83;;;22.70;95.10;;;;;;5115493;27;20123;-68
2022/08/28 11:11:41;;;;;;;6.75;1.73;;;22.90;94.50;;;;;;5133911;27;20147;-68
2022/08/28 11:14:08;;;;;;;6.22;1.80;;;23.20;93.80;;;;;;5132546;27;20027;-67
2022/08/28 11:16:38;;;;;;;3.85;1.48;;;23.20;92.70;;;;;;5132430;27;20035;-68
2022/08/28 11:19:23;;;;;;;7.90;2.10;;;23.20;93.40;;;;;;5133585;27;20096;-65
2022/08/28 11:22:14;;;;;;;4.13;1.52;;;22.80;93.10;;;;;;5132490;27;20046;-66
2022/08/28 11:24:46;;;;;;;4.65;1.60;;;22.30;92.80;;;;;;5033464;28;20132;-66
2022/08/28 11:27:18;;;;;;;;;;;22.30;93.20;;;;;;5027059;28;20049;-67
2022/08/28 11:30:02;;;;;;;4.68;1.95;;;22.30;92.80;;;;;;5013952;28;19921;-69
2022/08/28 11:32:31;;;;;;;7.60;1.63;;;22.50;93.60;;;;;;5013550;28;20056;-66
2022/08/28 11:35:01;;;;;;;4.50;1.77;;;23.00;93.90;;;;;;4997137;28;20123;-68
2022/08/28 11:37:42;;;;;;;4.20;1.55;;;23.10;93.40;;;;;;5013440;28;20132;-66
2022/08/28 11:40:39;;;;;;;5.50;1.55;;;22.80;92.20;;;;;;5013373;28;20120;-68
2022/08/28 11:43:13;;;;;;;3.72;1.50;;;22.30;91.60;;;;;;4996564;28;20050;-66
2022/08/28 11:45:42;;;;;;;4.18;1.60;;;21.70;91.40;;;;;;5013187;28;20453;-67
2022/08/28 11:48:38;;;;;;;3.90;1.42;;;21.40;92.00;;;;;;5012962;28;20084;-69
2022/08/28 11:51:06;;;;;;;6.65;2.05;;;21.20;91.90;;;;;;4987184;28;20510;-67
2022/08/28 11:53:49;;;;;;;6.88;1.50;;;21.40;92.90;;;;;;5013371;28;20091;-65
2022/08/28 11:56:54;;;;;;;6.03;1.85;;;21.70;92.80;;;;;;5012926;28;20049;-66
2022/08/28 11:59:33;;;;;;;5.75;1.70;;;22.00;92.40;;;;;;4954587;28;20164;-67
2022/08/28 12:02:50;;;;;;;3.70;1.58;;;22.10;91.70;;;;;;5015387;28;20055;-67
2022/08/28 12:05:16;;;;;;;4.93;1.80;;;21.80;91.70;;;;;;5012805;28;20077;-64
2022/08/28 12:07:49;;;;;;;3.92;1.38;;;21.30;91.90;;;;;;5012750;28;20911;-68
2022/08/28 12:10:21;;;;;;;8.93;1.80;;;21.60;92.40;;;;;;5012683;28;20136;-65
2022/08/28 12:12:46;;;;;;;5.68;1.80;;;21.40;91.90;;;;;;5012810;28;20048;-69
2022/08/28 12:15:27;;;;;;;6.40;1.70;;;21.20;92.20;;;;;;5012734;28;20049;-67
2022/08/28 12:18:32;;;;;;;6.32;2.53;;;21.10;92.10;;;;;;5012695;28;20532;-67
2022/08/28 12:21:02;;;;;;;6.28;1.50;;;21.00;92.50;;;;;;5026000;28;20056;-67
2022/08/28 12:23:35;;;;;;;4.60;1.83;;;20.80;92.90;;;;;;5032077;28;20056;-67
2022/08/28 12:26:14;;;;;;;3.05;1.27;;;20.80;92.70;;;;;;5015697;28;20074;-68
2022/08/28 12:28:48;;;;;;;2.80;1.30;;;21.10;93.10;;;;;;5032140;28;20160;-65
2022/08/28 12:32:12;;;;;;;4.25;1.45;;;21.40;92.90;;;;;;5032058;28;20071;-66
2022/08/28 12:34:56;;;;;;;5.45;1.80;;;21.20;93.20;;;;;;5030410;28;20157;-68
2022/08/28 12:37:29;;;;;;;6.55;2.00;;;21.00;93.50;;;;;;5049559;28;20086;-67
2022/08/28 12:40:03;;;;;;;4.75;1.63;;;20.70;93.60;;;;;;5058668;27;20391;-66
2022/08/28 12:42:32;;;;;;;5.10;1.75;;;20.70;94.10;;;;;;5130766;27;20051;-67
2022/08/28 12:45:09;;;;;;;4.55;1.90;;;20.80;94.20;;;;;;5130736;27;20043;-65
2022/08/28 12:47:36;;;;;;;4.65;1.60;;;21.10;94.40;;;;;;5130960;27;20035;-66
2022/08/28 12:50:26;;;;;;;4.60;1.70;;;21.30;94.10;;;;;;5130765;27;20096;-67
2022/08/28 12:52:55;;;;;;;5.00;1.48;;;21.30;93.10;;;;;;5113605;27;20083;-69
2022/08/28 12:55:23;;;;;;;2.35;1.20;;;21.10;93.50;;;;;;5130682;27;20047;-67
2022/08/28 12:57:49;;;;;;;4.07;1.60;;;20.80;93.60;;;;;;5131811;27;20031;-68
2022/08/28 13:00:18;;;;;;;7.25;1.80;;;20.60;93.90;;;;;;5131721;27;20046;-66
2022/08/28 13:02:46;;;;;;;4.40;1.60;;;20.50;94.10;;;;;;5130790;27;20035;-70
2022/08/28 13:05:22;;;;;;;5.10;1.50;;;20.60;94.10;;;;;;5130519;27;20035;-66
2022/08/28 13:07:52;;;;;;;3.53;1.50;;;20.80;93.00;;;;;;5130565;27;20524;-67
2022/08/28 13:10:24;;;;;;;5.30;1.45;;;21.10;93.60;;;;;;5129447;27;20481;-69
2022/08/28 13:12:54;;;;;;;4.25;1.52;;;21.20;91.90;;;;;;5128218;27;20122;-68
2022/08/28 13:15:44;;;;;;;5.93;1.50;;;21.10;92.40;;;;;;5130220;27;20039;-67